sensor_id;sensor_type;location;lat;lon;timestamp;pressure;altitude;pressure_sealevel;temperature;humidity
31088;BME280;17745;55.914;37.554;2022-09-12T00:02:25;99365.72;;;15.56;43.64
31088;BME280;17745;55.914;37.554;2022-09-12T00:04:58;99363.94;;;15.51;43.72
31088;BME280;17745;55.914;37.554;2022-09-12T00:07:26;99366.34;;;15.48;43.86
31088;BME280;17745;55.914;37.554;2022-09-12T00:10:07;99368.00;;;15.43;43.88
31088;BME280;17745;55.914;37.554;2022-09-12T00:12:34;99364.56;;;15.38;44.04
31088;BME280;17745;55.914;37.554;2022-09-12T00:15:03;99360.06;;;15.33;44.12
31088;BME280;17745;55.914;37.554;2022-09-12T00:17:33;99360.37;;;15.32;44.27
31088;BME280;17745;55.914;37.554;2022-09-12T00:20:09;99355.28;;;15.30;44.34
31088;BME280;17745;55.914;37.554;2022-09-12T00:22:38;99358.22;;;15.28;44.47
31088;BME280;17745;55.914;37.554;2022-09-12T00:25:07;99361.75;;;15.24;44.51
31088;BME280;17745;55.914;37.554;2022-09-12T00:27:35;99354.84;;;15.23;44.62
31088;BME280;17745;55.914;37.554;2022-09-12T00:30:10;99357.00;;;15.21;44.71
31088;BME280;17745;55.914;37.554;2022-09-12T00:32:38;99357.00;;;15.15;44.88
31088;BME280;17745;55.914;37.554;2022-09-12T00:35:11;99356.78;;;15.12;45.05
31088;BME280;17745;55.914;37.554;2022-09-12T00:37:39;99350.12;;;15.09;45.18
31088;BME280;17745;55.914;37.554;2022-09-12T00:40:08;99349.88;;;15.06;45.26
31088;BME280;17745;55.914;37.554;2022-09-12T00:42:35;99342.69;;;15.06;45.28
31088;BME280;17745;55.914;37.554;2022-09-12T00:45:04;99342.69;;;15.06;45.34
31088;BME280;17745;55.914;37.554;2022-09-12T00:47:32;99343.47;;;15.07;45.41
31088;BME280;17745;55.914;37.554;2022-09-12T00:50:05;99341.62;;;15.07;45.43
31088;BME280;17745;55.914;37.554;2022-09-12T00:52:39;99343.22;;;15.08;45.50
31088;BME280;17745;55.914;37.554;2022-09-12T00:58:16;99344.53;;;15.06;45.69
31088;BME280;17745;55.914;37.554;2022-09-12T01:00:46;99346.44;;;15.05;45.68
31088;BME280;17745;55.914;37.554;2022-09-12T01:03:16;99346.13;;;15.07;45.72
31088;BME280;17745;55.914;37.554;2022-09-12T01:05:51;99341.38;;;15.04;45.89
31088;BME280;17745;55.914;37.554;2022-09-12T01:08:24;99338.47;;;15.00;46.08
31088;BME280;17745;55.914;37.554;2022-09-12T01:10:52;99337.16;;;14.97;46.21
31088;BME280;17745;55.914;37.554;2022-09-12T01:13:21;99337.72;;;14.94;46.24
31088;BME280;17745;55.914;37.554;2022-09-12T01:15:49;99329.44;;;14.96;46.31
31088;BME280;17745;55.914;37.554;2022-09-12T01:18:22;99332.09;;;14.96;46.36
31088;BME280;17745;55.914;37.554;2022-09-12T01:21:08;99326.75;;;14.96;46.52
31088;BME280;17745;55.914;37.554;2022-09-12T01:24:14;99325.72;;;14.92;46.71
31088;BME280;17745;55.914;37.554;2022-09-12T01:27:09;99327.88;;;14.90;46.88
31088;BME280;17745;55.914;37.554;2022-09-12T01:30:04;99323.13;;;14.86;47.00
31088;BME280;17745;55.914;37.554;2022-09-12T01:32:46;99313.53;;;14.85;47.06
31088;BME280;17745;55.914;37.554;2022-09-12T01:35:22;99317.53;;;14.83;47.10
31088;BME280;17745;55.914;37.554;2022-09-12T01:38:05;99310.84;;;14.85;47.13
31088;BME280;17745;55.914;37.554;2022-09-12T01:40:42;99317.78;;;14.86;47.32
31088;BME280;17745;55.914;37.554;2022-09-12T01:43:18;99318.28;;;14.89;47.31
31088;BME280;17745;55.914;37.554;2022-09-12T01:45:56;99317.72;;;14.92;47.41
31088;BME280;17745;55.914;37.554;2022-09-12T01:48:34;99324.13;;;14.91;47.44
31088;BME280;17745;55.914;37.554;2022-09-12T01:51:06;99331.06;;;14.92;47.61
31088;BME280;17745;55.914;37.554;2022-09-12T01:53:40;99327.63;;;14.86;47.67
31088;BME280;17745;55.914;37.554;2022-09-12T01:56:26;99328.19;;;14.83;47.81
31088;BME280;17745;55.914;37.554;2022-09-12T01:59:03;99325.56;;;14.78;47.84
31088;BME280;17745;55.914;37.554;2022-09-12T02:01:40;99325.06;;;14.70;48.09
31088;BME280;17745;55.914;37.554;2022-09-12T02:04:17;99327.19;;;14.68;48.19
31088;BME280;17745;55.914;37.554;2022-09-12T02:06:48;99330.13;;;14.67;48.37
31088;BME280;17745;55.914;37.554;2022-09-12T02:09:23;99328.25;;;14.67;48.32
31088;BME280;17745;55.914;37.554;2022-09-12T02:11:59;99328.56;;;14.66;48.44
31088;BME280;17745;55.914;37.554;2022-09-12T02:14:37;99320.56;;;14.66;48.61
31088;BME280;17745;55.914;37.554;2022-09-12T02:17:13;99318.97;;;14.65;48.62
31088;BME280;17745;55.914;37.554;2022-09-12T02:19:51;99321.66;;;14.60;48.70
31088;BME280;17745;55.914;37.554;2022-09-12T02:22:20;99321.13;;;14.57;48.92
31088;BME280;17745;55.914;37.554;2022-09-12T02:24:53;99322.22;;;14.51;48.97
31088;BME280;17745;55.914;37.554;2022-09-12T02:27:24;99320.16;;;14.43;49.21
31088;BME280;17745;55.914;37.554;2022-09-12T02:29:54;99319.66;;;14.36;49.38
31088;BME280;17745;55.914;37.554;2022-09-12T02:32:28;99318.34;;;14.33;49.48
31088;BME280;17745;55.914;37.554;2022-09-12T02:35:02;99318.59;;;14.32;49.78
31088;BME280;17745;55.914;37.554;2022-09-12T02:37:44;99321.28;;;14.32;49.84
31088;BME280;17745;55.914;37.554;2022-09-12T02:40:17;99315.16;;;14.26;50.08
31088;BME280;17745;55.914;37.554;2022-09-12T02:42:44;99324.00;;;14.21;50.09
31088;BME280;17745;55.914;37.554;2022-09-12T02:45:15;99310.94;;;14.20;50.07
31088;BME280;17745;55.914;37.554;2022-09-12T02:47:52;99314.16;;;14.17;50.17
31088;BME280;17745;55.914;37.554;2022-09-12T02:50:42;99315.22;;;14.15;50.37
31088;BME280;17745;55.914;37.554;2022-09-12T02:53:24;99318.16;;;14.19;50.51
31088;BME280;17745;55.914;37.554;2022-09-12T02:55:59;99324.25;;;14.20;50.26
31088;BME280;17745;55.914;37.554;2022-09-12T02:58:28;99315.50;;;14.19;50.29
31088;BME280;17745;55.914;37.554;2022-09-12T03:01:05;99313.88;;;14.18;50.44
31088;BME280;17745;55.914;37.554;2022-09-12T03:04:05;99315.22;;;14.15;50.65
31088;BME280;17745;55.914;37.554;2022-09-12T03:06:49;99319.75;;;14.15;50.81
31088;BME280;17745;55.914;37.554;2022-09-12T03:09:23;99320.28;;;14.12;50.88
31088;BME280;17745;55.914;37.554;2022-09-12T03:12:06;99314.44;;;14.10;50.89
31088;BME280;17745;55.914;37.554;2022-09-12T03:14:48;99321.91;;;14.08;51.04
31088;BME280;17745;55.914;37.554;2022-09-12T03:17:28;99324.06;;;14.06;51.16
31088;BME280;17745;55.914;37.554;2022-09-12T03:20:20;99320.59;;;14.05;51.20
31088;BME280;17745;55.914;37.554;2022-09-12T03:23:24;99325.66;;;14.07;51.27
31088;BME280;17745;55.914;37.554;2022-09-12T03:25:58;99324.31;;;14.09;51.27
31088;BME280;17745;55.914;37.554;2022-09-12T03:28:28;99318.72;;;14.11;51.17
31088;BME280;17745;55.914;37.554;2022-09-12T03:31:12;99326.97;;;14.09;51.21
31088;BME280;17745;55.914;37.554;2022-09-12T03:33:42;99324.84;;;14.11;51.37
31088;BME280;17745;55.914;37.554;2022-09-12T03:36:30;99326.16;;;14.09;51.33
31088;BME280;17745;55.914;37.554;2022-09-12T03:43:23;99329.66;;;14.09;51.54
31088;BME280;17745;55.914;37.554;2022-09-12T03:46:34;99336.28;;;14.12;51.46
31088;BME280;17745;55.914;37.554;2022-09-12T06:44:07;99317.25;;;16.79;50.19
31088;BME280;17745;55.914;37.554;2022-09-12T06:46:54;99320.06;;;16.88;49.97
31088;BME280;17745;55.914;37.554;2022-09-12T06:49:29;99321.06;;;16.92;49.84
31088;BME280;17745;55.914;37.554;2022-09-12T06:51:59;99327.00;;;17.08;49.76
31088;BME280;17745;55.914;37.554;2022-09-12T06:54:29;99320.75;;;17.13;49.45
31088;BME280;17745;55.914;37.554;2022-09-12T08:45:15;99349.09;;;17.47;46.55
31088;BME280;17745;55.914;37.554;2022-09-12T08:47:52;99353.34;;;17.48;46.68
31088;BME280;17745;55.914;37.554;2022-09-12T08:50:25;99348.13;;;17.57;46.77
31088;BME280;17745;55.914;37.554;2022-09-12T08:53:34;99346.44;;;17.61;46.57
31088;BME280;17745;55.914;37.554;2022-09-12T08:57:18;99333.25;;;17.65;46.46
31088;BME280;17745;55.914;37.554;2022-09-12T09:28:35;99332.66;;;17.82;46.17
31088;BME280;17745;55.914;37.554;2022-09-12T09:31:25;99338.91;;;17.91;46.09
31088;BME280;17745;55.914;37.554;2022-09-12T09:33:54;99335.44;;;18.05;45.99
31088;BME280;17745;55.914;37.554;2022-09-12T09:36:33;99329.59;;;18.17;45.91
31088;BME280;17745;55.914;37.554;2022-09-12T09:39:18;99334.22;;;18.39;45.74
31088;BME280;17745;55.914;37.554;2022-09-12T09:42:00;99338.63;;;18.57;45.47
31088;BME280;17745;55.914;37.554;2022-09-12T09:44:39;99341.28;;;18.71;45.16
31088;BME280;17745;55.914;37.554;2022-09-12T09:47:21;99337.94;;;18.89;45.04
31088;BME280;17745;55.914;37.554;2022-09-12T09:49:56;99336.88;;;19.12;44.82
31088;BME280;17745;55.914;37.554;2022-09-12T09:52:29;99338.84;;;19.29;44.55
31088;BME280;17745;55.914;37.554;2022-09-12T09:55:15;99343.00;;;19.36;43.92
31088;BME280;17745;55.914;37.554;2022-09-12T09:57:48;99339.16;;;19.28;43.58
31088;BME280;17745;55.914;37.554;2022-09-12T10:00:38;99335.06;;;19.31;43.35
31088;BME280;17745;55.914;37.554;2022-09-12T10:03:33;99331.00;;;19.33;43.07
31088;BME280;17745;55.914;37.554;2022-09-12T10:06:06;99329.53;;;19.27;42.52
31088;BME280;17745;55.914;37.554;2022-09-12T10:08:36;99332.03;;;19.23;42.36
31088;BME280;17745;55.914;37.554;2022-09-12T10:11:08;99333.88;;;19.14;42.60
31088;BME280;17745;55.914;37.554;2022-09-12T10:13:52;99323.31;;;19.18;42.60
31088;BME280;17745;55.914;37.554;2022-09-12T10:16:26;99329.87;;;19.34;42.17
31088;BME280;17745;55.914;37.554;2022-09-12T10:19:20;99332.81;;;19.55;41.95
31088;BME280;17745;55.914;37.554;2022-09-12T10:21:52;99320.44;;;19.86;41.59
31088;BME280;17745;55.914;37.554;2022-09-12T10:24:38;99316.72;;;19.96;41.23
31088;BME280;17745;55.914;37.554;2022-09-12T10:27:14;99323.53;;;20.02;41.43
31088;BME280;17745;55.914;37.554;2022-09-12T10:30:01;99326.09;;;20.16;41.12
31088;BME280;17745;55.914;37.554;2022-09-12T13:54:35;99252.09;;;22.18;32.24
31088;BME280;17745;55.914;37.554;2022-09-12T14:00:44;99249.13;;;22.11;32.41
31088;BME280;17745;55.914;37.554;2022-09-12T14:25:05;99250.81;;;20.60;33.81
31088;BME280;17745;55.914;37.554;2022-09-12T14:27:42;99246.25;;;20.17;34.25
31088;BME280;17745;55.914;37.554;2022-09-12T14:30:38;99250.66;;;19.95;34.37
31088;BME280;17745;55.914;37.554;2022-09-12T14:33:27;99257.03;;;19.67;34.87
31088;BME280;17745;55.914;37.554;2022-09-12T14:39:36;99256.78;;;19.37;35.62
31088;BME280;17745;55.914;37.554;2022-09-12T15:34:45;99275.81;;;17.29;39.49
31088;BME280;17745;55.914;37.554;2022-09-12T15:37:13;99276.31;;;17.17;39.59
31088;BME280;17745;55.914;37.554;2022-09-12T15:39:41;99269.25;;;17.07;39.76
31088;BME280;17745;55.914;37.554;2022-09-12T15:42:23;99280.44;;;17.09;39.94
31088;BME280;17745;55.914;37.554;2022-09-12T15:45:25;99288.03;;;17.02;40.14
31088;BME280;17745;55.914;37.554;2022-09-12T15:48:05;99285.94;;;16.99;40.27
31088;BME280;17745;55.914;37.554;2022-09-12T15:51:19;99295.13;;;16.93;40.21
31088;BME280;17745;55.914;37.554;2022-09-12T16:25:58;99298.53;;;16.03;41.71
31088;BME280;17745;55.914;37.554;2022-09-12T17:01:04;99306.72;;;15.04;43.04
31088;BME280;17745;55.914;37.554;2022-09-12T17:04:11;99308.34;;;14.99;43.15
31088;BME280;17745;55.914;37.554;2022-09-12T17:18:00;99314.09;;;14.77;43.35
31088;BME280;17745;55.914;37.554;2022-09-12T19:28:27;99313.25;;;15.22;42.87
31088;BME280;17745;55.914;37.554;2022-09-12T19:31:09;99311.66;;;15.21;42.85
31088;BME280;17745;55.914;37.554;2022-09-12T19:33:58;99312.09;;;15.28;42.81
31088;BME280;17745;55.914;37.554;2022-09-12T19:36:31;99311.53;;;15.31;42.75
31088;BME280;17745;55.914;37.554;2022-09-12T19:39:04;99314.72;;;15.33;42.70
31088;BME280;17745;55.914;37.554;2022-09-12T19:48:10;99316.88;;;15.31;42.77
31088;BME280;17745;55.914;37.554;2022-09-12T19:50:48;99312.06;;;15.33;42.70
31088;BME280;17745;55.914;37.554;2022-09-12T19:53:25;99318.72;;;15.36;42.63
31088;BME280;17745;55.914;37.554;2022-09-12T19:56:25;99313.06;;;15.37;42.64
31088;BME280;17745;55.914;37.554;2022-09-12T20:00:08;99310.72;;;15.36;42.63
